createdAt,value
2023-04-15T00:01:39.079Z,7.40
2023-04-15T00:04:05.674Z,7.83
2023-04-15T00:06:32.520Z,7.23
2023-04-15T00:08:59.344Z,7.27
2023-04-15T00:11:26.250Z,8.00
2023-04-15T00:13:52.754Z,7.87
2023-04-15T00:16:19.441Z,7.63
2023-04-15T00:18:46.038Z,7.90
2023-04-15T00:21:12.591Z,7.93
2023-04-15T00:23:39.189Z,7.50
2023-04-15T00:26:05.778Z,7.17
2023-04-15T00:28:32.363Z,7.37
2023-04-15T00:30:59.408Z,6.80
2023-04-15T00:33:25.963Z,6.50
2023-04-15T00:35:52.546Z,6.80
2023-04-15T00:38:19.639Z,6.80
2023-04-15T00:40:46.266Z,7.30
2023-04-15T00:43:12.891Z,6.80
2023-04-15T00:45:39.417Z,6.63
2023-04-15T00:48:06.057Z,6.87
2023-04-15T00:50:33.604Z,6.87
2023-04-15T00:53:00.137Z,6.90
2023-04-15T00:55:26.934Z,7.33
2023-04-15T00:57:53.532Z,7.30
2023-04-15T01:00:20.612Z,6.93
2023-04-15T01:02:47.821Z,7.47
2023-04-15T01:05:17.287Z,7.23
2023-04-15T01:07:43.834Z,7.13
2023-04-15T01:10:10.494Z,7.03
2023-04-15T01:12:37.876Z,7.07
2023-04-15T01:15:04.533Z,7.10
2023-04-15T01:17:31.586Z,7.20
2023-04-15T01:19:58.200Z,7.20
2023-04-15T01:22:26.759Z,7.43
2023-04-15T01:25:23.217Z,7.87
2023-04-15T01:27:49.777Z,7.17
2023-04-15T01:30:16.335Z,7.53
2023-04-15T01:32:43.109Z,7.83
2023-04-15T01:35:09.996Z,7.63
2023-04-15T01:37:36.863Z,7.43
2023-04-15T01:40:03.615Z,7.77
2023-04-15T01:42:30.244Z,7.70
2023-04-15T01:44:57.102Z,8.13
2023-04-15T01:47:23.655Z,8.20
2023-04-15T01:49:50.422Z,8.97
2023-04-15T01:52:17.009Z,7.93
2023-04-15T01:54:43.536Z,8.07
2023-04-15T01:57:10.096Z,8.37
2023-04-15T01:59:37.258Z,8.10
2023-04-15T02:02:04.467Z,9.00
2023-04-15T02:04:31.838Z,8.17
2023-04-15T02:06:58.387Z,8.10
2023-04-15T02:09:25.024Z,9.43
2023-04-15T02:11:53.068Z,9.23
2023-04-15T02:14:19.803Z,8.90
2023-04-15T02:16:46.602Z,9.20
2023-04-15T02:19:14.094Z,9.33
2023-04-15T02:21:40.821Z,9.00
2023-04-15T02:24:07.531Z,9.77
2023-04-15T02:26:34.174Z,8.27
2023-04-15T02:29:01.131Z,10.17
2023-04-15T02:31:28.020Z,9.00
2023-04-15T02:33:54.583Z,9.50
2023-04-15T02:36:21.464Z,10.40
2023-04-15T02:38:47.987Z,9.70
2023-04-15T02:41:14.598Z,9.50
2023-04-15T02:43:41.241Z,10.00
2023-04-15T02:46:07.822Z,10.57
2023-04-15T02:48:34.416Z,10.47
2023-04-15T02:51:13.391Z,10.50
2023-04-15T02:53:40.112Z,10.60
2023-04-15T02:56:06.820Z,10.33
2023-04-15T02:58:34.853Z,11.23
2023-04-15T03:01:01.572Z,11.33
2023-04-15T03:03:28.838Z,11.23
2023-04-15T03:05:55.440Z,12.70
2023-04-15T03:08:21.992Z,12.77
2023-04-15T03:10:48.943Z,12.73
2023-04-15T03:13:15.521Z,13.97
2023-04-15T03:15:42.288Z,12.33
2023-04-15T03:18:08.926Z,12.70
2023-04-15T03:20:36.622Z,13.90
2023-04-15T03:23:03.383Z,11.47
2023-04-15T03:25:30.024Z,12.27
2023-04-15T03:27:56.861Z,12.70
2023-04-15T03:30:23.388Z,13.00
2023-04-15T03:32:49.876Z,13.30
2023-04-15T03:35:16.566Z,13.50
2023-04-15T03:37:43.074Z,14.17
2023-04-15T03:40:10.009Z,14.30
2023-04-15T03:42:36.609Z,15.00
2023-04-15T03:45:03.623Z,15.13
2023-04-15T03:47:30.425Z,13.90
2023-04-15T03:49:56.996Z,12.87
2023-04-15T03:52:23.572Z,14.73
2023-04-15T03:54:50.249Z,15.47
2023-04-15T03:57:16.824Z,14.50
2023-04-15T03:59:43.948Z,16.27
2023-04-15T04:02:10.665Z,14.83
2023-04-15T04:04:37.512Z,16.90
2023-04-15T04:07:04.157Z,15.67
2023-04-15T04:09:30.724Z,16.13
2023-04-15T04:11:58.380Z,16.83
2023-04-15T04:14:44.925Z,16.77
2023-04-15T04:17:31.513Z,15.80
2023-04-15T04:20:18.003Z,17.17
2023-04-15T04:22:49.872Z,15.97
2023-04-15T04:25:27.602Z,17.67
2023-04-15T04:28:14.058Z,16.37
2023-04-15T04:30:43.411Z,16.60
2023-04-15T04:33:10.491Z,16.43
2023-04-15T04:35:37.861Z,15.73
2023-04-15T04:38:04.634Z,16.03
2023-04-15T04:40:31.351Z,16.50
2023-04-15T04:42:57.977Z,15.40
2023-04-15T04:45:24.476Z,17.73
2023-04-15T04:47:51.170Z,16.13
2023-04-15T04:50:17.956Z,17.50
2023-04-15T04:52:44.457Z,16.70
2023-04-15T04:55:11.119Z,17.00
2023-04-15T04:57:39.486Z,15.87
2023-04-15T05:00:08.556Z,15.63
2023-04-15T05:02:35.458Z,16.90
2023-04-15T05:05:02.084Z,15.60
2023-04-15T05:07:28.652Z,16.67
2023-04-15T05:09:55.169Z,15.03
2023-04-15T05:12:21.705Z,16.23
2023-04-15T05:14:48.246Z,15.27
2023-04-15T05:17:15.404Z,15.60
2023-04-15T05:19:41.970Z,15.83
2023-04-15T05:22:08.608Z,14.73
2023-04-15T05:24:35.129Z,16.20
2023-04-15T05:27:02.228Z,16.43
2023-04-15T05:29:28.736Z,16.10
2023-04-15T05:31:56.138Z,15.53
2023-04-15T05:34:23.012Z,15.73
2023-04-15T05:36:49.526Z,17.00
2023-04-15T05:39:16.241Z,16.80
2023-04-15T05:41:42.760Z,17.53
2023-04-15T05:44:09.283Z,16.67
2023-04-15T05:46:35.826Z,17.10
2023-04-15T05:49:02.729Z,17.20
2023-04-15T05:51:29.497Z,16.73
2023-04-15T05:53:56.345Z,17.77
2023-04-15T05:56:22.906Z,17.53
2023-04-15T05:58:50.537Z,17.20
2023-04-15T06:01:17.940Z,17.83
2023-04-15T06:03:45.058Z,17.50
2023-04-15T06:06:11.855Z,17.90
2023-04-15T06:08:38.433Z,17.83
2023-04-15T06:11:04.999Z,18.37
2023-04-15T06:13:31.550Z,18.33
2023-04-15T06:15:58.648Z,20.50
2023-04-15T06:18:25.177Z,19.33
2023-04-15T06:20:52.099Z,18.97
2023-04-15T06:23:18.735Z,20.20
2023-04-15T06:25:45.242Z,20.87
2023-04-15T06:28:12.052Z,20.13
2023-04-15T06:30:39.171Z,19.97
2023-04-15T06:33:06.345Z,20.73
2023-04-15T06:35:32.832Z,20.53
2023-04-15T06:37:59.407Z,19.83
2023-04-15T06:40:26.039Z,21.03
2023-04-15T06:42:52.674Z,20.57
2023-04-15T06:45:19.224Z,21.30
2023-04-15T06:47:45.806Z,20.73
2023-04-15T06:50:12.602Z,20.77
2023-04-15T06:52:39.320Z,22.03
2023-04-15T06:55:07.053Z,20.57
2023-04-15T06:57:35.054Z,20.27
2023-04-15T07:00:01.854Z,20.77
2023-04-15T07:02:28.590Z,20.30
2023-04-15T07:04:55.695Z,21.13
2023-04-15T07:07:22.334Z,21.77
2023-04-15T07:09:48.918Z,20.93
2023-04-15T07:12:15.434Z,21.83
2023-04-15T07:14:41.964Z,21.80
2023-04-15T07:17:09.400Z,21.20
2023-04-15T07:19:35.983Z,22.23
2023-04-15T07:22:02.485Z,22.90
2023-04-15T07:24:29.113Z,22.87
2023-04-15T07:27:00.885Z,21.40
2023-04-15T07:29:27.940Z,22.20
2023-04-15T07:31:54.614Z,23.73
2023-04-15T07:34:21.271Z,23.47
2023-04-15T07:36:50.686Z,25.17
2023-04-15T07:39:17.716Z,23.77
2023-04-15T07:41:44.345Z,24.13
2023-04-15T07:44:11.333Z,24.13
2023-04-15T07:46:38.775Z,24.17
2023-04-15T07:49:05.446Z,24.70
2023-04-15T07:51:32.385Z,24.00
2023-04-15T07:53:59.341Z,23.73
2023-04-15T07:56:26.649Z,24.23
2023-04-15T07:58:53.434Z,25.07
2023-04-15T08:01:20.011Z,23.87
2023-04-15T08:03:47.253Z,24.87
2023-04-15T08:06:14.379Z,24.60
2023-04-15T08:08:40.880Z,24.20
2023-04-15T08:11:07.461Z,24.47
2023-04-15T08:13:34.040Z,23.37
2023-04-15T08:16:19.449Z,22.90
2023-04-15T08:18:46.679Z,23.73
2023-04-15T08:21:13.527Z,24.33
2023-04-15T08:23:40.210Z,24.90
2023-04-15T08:26:07.701Z,24.07
2023-04-15T08:28:34.374Z,23.93
2023-04-15T08:31:01.836Z,23.73
2023-04-15T08:33:29.119Z,22.97
2023-04-15T08:35:55.673Z,22.07
2023-04-15T08:38:22.786Z,22.33
2023-04-15T08:40:49.573Z,22.77
2023-04-15T08:43:21.386Z,24.27
2023-04-15T08:45:49.778Z,22.03
2023-04-15T08:48:17.003Z,23.47
2023-04-15T08:50:43.676Z,22.63
2023-04-15T08:53:11.021Z,22.13
2023-04-15T08:55:39.973Z,22.47
2023-04-15T08:58:06.819Z,21.73
2023-04-15T09:00:34.108Z,22.43
2023-04-15T09:03:01.119Z,21.33
2023-04-15T09:05:27.783Z,21.50
2023-04-15T09:07:54.291Z,22.30
2023-04-15T09:10:20.841Z,20.47
2023-04-15T09:12:47.338Z,20.53
2023-04-15T09:15:14.309Z,20.43
2023-04-15T09:17:45.006Z,21.10
2023-04-15T09:20:15.567Z,20.23
2023-04-15T09:22:43.402Z,21.07
2023-04-15T09:25:16.461Z,20.97
2023-04-15T09:27:49.914Z,19.73
2023-04-15T09:30:16.907Z,18.20
2023-04-15T09:32:50.598Z,19.97
2023-04-15T09:35:17.458Z,19.73
2023-04-15T09:37:43.956Z,18.93
2023-04-15T09:40:11.120Z,19.43
2023-04-15T09:42:38.125Z,18.70
2023-04-15T09:45:12.090Z,17.97
2023-04-15T09:47:38.725Z,18.30
2023-04-15T09:50:05.552Z,18.40
2023-04-15T09:52:32.111Z,18.73
2023-04-15T09:54:59.549Z,18.50
2023-04-15T09:57:33.632Z,17.67
2023-04-15T10:00:00.264Z,17.10
2023-04-15T10:02:27.462Z,18.00
2023-04-15T10:04:54.865Z,17.27
2023-04-15T10:07:22.485Z,16.90
2023-04-15T10:09:49.440Z,17.97
2023-04-15T10:12:17.886Z,16.80
2023-04-15T10:14:44.640Z,15.83
2023-04-15T10:17:12.712Z,16.07
2023-04-15T10:19:40.589Z,16.03
2023-04-15T10:22:07.893Z,16.07
2023-04-15T10:24:34.532Z,16.00
2023-04-15T10:27:04.023Z,16.33
2023-04-15T10:29:30.953Z,16.50
2023-04-15T10:31:59.076Z,15.63
2023-04-15T10:34:26.121Z,16.40
2023-04-15T10:36:56.595Z,16.23
2023-04-15T10:39:38.731Z,16.33
2023-04-15T10:42:13.195Z,15.97
2023-04-15T10:44:41.973Z,14.83
2023-04-15T10:47:12.759Z,16.00
2023-04-15T10:49:52.531Z,15.53
2023-04-15T10:52:23.903Z,16.37
2023-04-15T10:54:50.850Z,15.03
2023-04-15T10:57:22.401Z,14.13
2023-04-15T10:59:58.815Z,14.40
2023-04-15T11:02:42.077Z,13.77
2023-04-15T11:05:09.207Z,15.23
2023-04-15T11:08:02.677Z,14.83
2023-04-15T11:10:29.327Z,15.10
2023-04-15T11:13:00.604Z,13.97
2023-04-15T11:15:34.433Z,15.03
2023-04-15T11:18:20.893Z,14.83
2023-04-15T11:21:00.204Z,14.93
2023-04-15T11:23:31.734Z,14.07
2023-04-15T11:25:59.515Z,14.37
2023-04-15T11:28:30.425Z,14.27
2023-04-15T11:30:57.436Z,15.03
2023-04-15T11:33:24.400Z,15.33
2023-04-15T11:35:52.814Z,15.57
2023-04-15T11:38:19.767Z,15.57
2023-04-15T11:40:47.240Z,17.30
2023-04-15T11:43:21.166Z,17.20
2023-04-15T11:45:48.956Z,16.77
2023-04-15T11:48:15.772Z,16.83
2023-04-15T11:50:42.319Z,17.00
2023-04-15T11:53:10.176Z,17.83
2023-04-15T11:55:44.739Z,16.63
2023-04-15T11:58:13.590Z,18.20
2023-04-15T12:00:42.075Z,17.90
2023-04-15T12:03:12.806Z,18.03
2023-04-15T12:05:58.662Z,19.57
2023-04-15T12:08:25.557Z,21.60
2023-04-15T12:10:52.141Z,21.57
2023-04-15T12:13:18.880Z,21.87
2023-04-15T12:15:45.459Z,21.27
2023-04-15T12:18:18.834Z,20.20
2023-04-15T12:20:45.920Z,22.23
2023-04-15T12:23:12.441Z,21.87
2023-04-15T12:25:39.420Z,22.13
2023-04-15T12:28:12.989Z,22.83
2023-04-15T12:30:48.932Z,22.80
2023-04-15T12:33:15.487Z,21.67
2023-04-15T12:35:42.178Z,23.00
2023-04-15T12:38:10.920Z,21.80
2023-04-15T12:40:37.418Z,22.63
2023-04-15T12:43:03.987Z,22.93
2023-04-15T12:45:30.795Z,24.40
2023-04-15T12:47:57.407Z,23.10
2023-04-15T12:50:23.902Z,22.43
2023-04-15T12:52:51.061Z,23.37
2023-04-15T12:55:18.177Z,23.50
2023-04-15T12:57:44.729Z,24.17
2023-04-15T13:00:12.256Z,24.23
2023-04-15T13:02:38.876Z,23.73
2023-04-15T13:05:05.823Z,24.83
2023-04-15T13:07:32.380Z,24.17
2023-04-15T13:09:58.958Z,23.00
2023-04-15T13:12:25.675Z,24.07
2023-04-15T13:14:52.512Z,24.13
2023-04-15T13:17:20.605Z,24.67
2023-04-15T13:19:47.395Z,26.33
2023-04-15T13:22:15.011Z,25.37
2023-04-15T13:24:41.705Z,24.70
2023-04-15T13:27:08.407Z,25.33
2023-04-15T13:29:34.917Z,25.00
2023-04-15T13:32:01.728Z,25.20
2023-04-15T13:34:28.388Z,24.07
2023-04-15T13:36:55.012Z,24.50
2023-04-15T13:39:21.653Z,24.77
2023-04-15T13:41:48.621Z,23.83
2023-04-15T13:44:15.175Z,24.30
2023-04-15T13:46:44.884Z,25.43
2023-04-15T13:49:11.677Z,24.73
2023-04-15T13:51:38.605Z,24.70
2023-04-15T13:54:05.757Z,25.27
2023-04-15T13:56:33.476Z,24.37
2023-04-15T13:59:03.288Z,26.23
2023-04-15T14:01:30.832Z,25.33
2023-04-15T14:03:58.401Z,24.47
2023-04-15T14:06:26.763Z,27.07
2023-04-15T14:08:54.303Z,25.53
2023-04-15T14:11:22.027Z,27.77
2023-04-15T14:13:49.701Z,28.13
2023-04-15T14:16:17.740Z,27.50
2023-04-15T14:18:48.723Z,27.43
2023-04-15T14:21:17.037Z,28.00
2023-04-15T14:23:45.325Z,28.97
2023-04-15T14:26:14.252Z,29.30
2023-04-15T14:28:42.014Z,30.03
2023-04-15T14:31:09.391Z,29.87
2023-04-15T14:33:36.618Z,29.77
2023-04-15T14:36:04.806Z,31.30
2023-04-15T14:38:34.357Z,32.03
2023-04-15T14:41:01.456Z,32.73
2023-04-15T14:43:28.038Z,32.83
2023-04-15T14:45:55.360Z,32.97
2023-04-15T14:48:22.125Z,32.07
2023-04-15T14:50:48.730Z,31.90
2023-04-15T14:53:15.457Z,30.13
2023-04-15T14:55:42.150Z,31.87
2023-04-15T14:58:09.480Z,31.23
2023-04-15T15:00:39.256Z,30.77
2023-04-15T15:03:12.682Z,31.90
2023-04-15T15:05:40.583Z,31.07
2023-04-15T15:08:08.221Z,31.97
2023-04-15T15:10:48.722Z,32.40
2023-04-15T15:13:16.835Z,31.80
2023-04-15T15:15:43.393Z,32.67
2023-04-15T15:18:10.420Z,33.17
2023-04-15T15:20:37.217Z,32.83
2023-04-15T15:23:03.747Z,33.33
2023-04-15T15:25:30.493Z,33.63
2023-04-15T15:27:58.203Z,32.90
2023-04-15T15:30:24.887Z,36.83
2023-04-15T15:32:51.696Z,34.77
2023-04-15T15:35:18.346Z,36.60
2023-04-15T15:37:45.561Z,35.67
2023-04-15T15:40:12.474Z,36.80
2023-04-15T15:42:39.245Z,33.83
2023-04-15T15:45:06.135Z,32.13
2023-04-15T15:47:32.907Z,34.70
2023-04-15T15:50:00.696Z,31.90
2023-04-15T15:52:27.727Z,31.67
2023-04-15T15:54:54.476Z,29.20
2023-04-15T15:57:21.297Z,29.57
2023-04-15T15:59:47.975Z,30.63
2023-04-15T16:02:14.920Z,28.53
2023-04-15T16:04:43.332Z,29.10
2023-04-15T16:07:11.008Z,29.23
2023-04-15T16:09:37.816Z,28.63
2023-04-15T16:12:04.555Z,28.33
2023-04-15T16:14:31.247Z,28.13
2023-04-15T16:16:58.113Z,26.07
2023-04-15T16:19:24.848Z,25.77
2023-04-15T16:21:51.502Z,26.03
2023-04-15T16:24:18.235Z,27.37
2023-04-15T16:26:44.882Z,26.90
2023-04-15T16:29:11.627Z,28.53
2023-04-15T16:31:40.664Z,27.67
2023-04-15T16:34:07.366Z,28.77
2023-04-15T16:36:34.964Z,29.80
2023-04-15T16:39:02.077Z,29.87
2023-04-15T16:41:29.177Z,29.23
2023-04-15T16:43:57.016Z,30.73
2023-04-15T16:46:23.653Z,31.20
2023-04-15T16:48:50.401Z,29.77
2023-04-15T16:51:17.132Z,30.57
2023-04-15T16:53:43.715Z,30.73
2023-04-15T16:56:10.474Z,29.90
2023-04-15T16:58:37.093Z,31.70
2023-04-15T17:01:03.814Z,31.60
2023-04-15T17:03:31.191Z,30.53
2023-04-15T17:05:57.877Z,31.20
2023-04-15T17:08:24.484Z,31.40
2023-04-15T17:10:51.883Z,30.87
2023-04-15T17:13:18.564Z,30.73
2023-04-15T17:15:45.196Z,30.73
2023-04-15T17:18:12.251Z,29.77
2023-04-15T17:20:39.314Z,29.43
2023-04-15T17:23:06.002Z,29.70
2023-04-15T17:25:32.584Z,28.83
2023-04-15T17:27:59.213Z,29.47
2023-04-15T17:30:25.785Z,29.30
2023-04-15T17:32:52.456Z,29.83
2023-04-15T17:35:23.565Z,31.13
2023-04-15T17:37:50.190Z,30.03
2023-04-15T17:40:17.037Z,30.13
2023-04-15T17:42:44.129Z,31.57
2023-04-15T17:45:11.277Z,31.03
2023-04-15T17:47:38.192Z,30.67
2023-04-15T17:50:05.066Z,31.97
2023-04-15T17:52:32.190Z,32.23
2023-04-15T17:54:59.529Z,32.30
2023-04-15T17:57:26.320Z,32.37
2023-04-15T17:59:53.074Z,34.50
2023-04-15T18:02:19.758Z,33.60
2023-04-15T18:04:46.609Z,33.63
2023-04-15T18:07:13.365Z,35.27
2023-04-15T18:09:40.004Z,35.83
2023-04-15T18:12:09.064Z,34.23
2023-04-15T18:14:36.545Z,36.27
2023-04-15T18:17:03.400Z,36.60
2023-04-15T18:19:30.464Z,38.53
2023-04-15T18:21:57.346Z,38.37
2023-04-15T18:24:23.935Z,38.53
2023-04-15T18:26:50.562Z,39.10
2023-04-15T18:29:18.675Z,37.70
2023-04-15T18:31:45.334Z,39.17
2023-04-15T18:34:11.867Z,40.03
2023-04-15T18:36:38.569Z,37.70
2023-04-15T18:39:05.836Z,38.57
2023-04-15T18:41:32.547Z,39.60
2023-04-15T18:43:59.116Z,38.30
2023-04-15T18:46:25.933Z,39.47
2023-04-15T18:48:52.628Z,37.50
2023-04-15T18:51:19.245Z,39.40
2023-04-15T18:53:45.959Z,39.47
2023-04-15T18:56:12.577Z,39.80
2023-04-15T18:59:10.106Z,43.23
2023-04-15T19:01:26.438Z,40.50
2023-04-15T19:03:53.130Z,41.37
2023-04-15T19:06:19.688Z,43.13
2023-04-15T19:08:46.316Z,42.03
2023-04-15T19:11:13.028Z,42.90
2023-04-15T19:13:39.650Z,44.40
2023-04-15T19:16:06.389Z,43.13
2023-04-15T19:18:33.227Z,46.17
2023-04-15T19:20:59.988Z,44.30
2023-04-15T19:23:26.804Z,47.50
2023-04-15T19:25:53.448Z,46.60
2023-04-15T19:28:20.200Z,46.60
2023-04-15T19:30:47.475Z,45.57
2023-04-15T19:33:15.294Z,46.37
2023-04-15T19:35:42.245Z,47.00
2023-04-15T19:38:09.022Z,46.67
2023-04-15T19:40:35.758Z,49.30
2023-04-15T19:43:02.394Z,47.97
2023-04-15T19:45:29.155Z,49.30
2023-04-15T19:47:56.048Z,50.60
2023-04-15T19:50:26.440Z,49.90
2023-04-15T19:52:53.486Z,48.27
2023-04-15T19:55:20.209Z,50.60
2023-04-15T19:57:47.132Z,48.80
2023-04-15T20:00:15.112Z,50.43
2023-04-15T20:02:41.953Z,49.97
2023-04-15T20:05:10.497Z,48.93
2023-04-15T20:07:38.161Z,51.20
2023-04-15T20:10:12.474Z,48.03
2023-04-15T20:12:51.137Z,49.43
2023-04-15T20:15:19.385Z,50.57
2023-04-15T20:17:46.266Z,50.33
2023-04-15T20:20:13.053Z,49.73
2023-04-15T20:22:39.863Z,50.00
2023-04-15T20:25:06.730Z,48.80
2023-04-15T20:27:33.327Z,48.40
2023-04-15T20:30:00.033Z,46.67
2023-04-15T20:32:28.397Z,49.03
2023-04-15T20:34:55.274Z,46.93
2023-04-15T20:37:22.454Z,47.47
2023-04-15T20:39:49.258Z,49.33
2023-04-15T20:42:15.968Z,47.87
2023-04-15T20:44:42.493Z,48.20
2023-04-15T20:47:09.205Z,48.83
2023-04-15T20:49:36.429Z,48.07
2023-04-15T20:52:03.568Z,47.47
2023-04-15T20:54:30.498Z,44.90
2023-04-15T20:56:59.987Z,46.97
2023-04-15T20:59:26.565Z,44.70
2023-04-15T21:01:53.250Z,42.27
2023-04-15T21:04:22.256Z,46.47
2023-04-15T21:06:49.802Z,44.60
2023-04-15T21:09:16.464Z,45.57
2023-04-15T21:11:59.877Z,44.77
2023-04-15T21:14:28.355Z,46.97
2023-04-15T21:16:55.076Z,48.60
2023-04-15T21:19:22.931Z,47.27
2023-04-15T21:21:50.105Z,48.17
2023-04-15T21:24:18.030Z,47.90
2023-04-15T21:26:49.606Z,49.63
2023-04-15T21:29:21.109Z,48.67
2023-04-15T21:31:49.366Z,52.33
2023-04-15T21:34:17.518Z,53.43
2023-04-15T21:36:44.615Z,55.87
2023-04-15T21:39:11.982Z,54.03
2023-04-15T21:41:38.751Z,53.50
2023-04-15T21:44:06.140Z,53.73
2023-04-15T21:46:35.221Z,53.23
2023-04-15T21:49:03.263Z,53.80
2023-04-15T21:51:31.854Z,53.60
2023-04-15T21:53:59.500Z,49.43
2023-04-15T21:56:27.133Z,50.30
2023-04-15T21:58:55.812Z,53.77
2023-04-15T22:01:22.860Z,51.80
2023-04-15T22:03:50.841Z,51.97
2023-04-15T22:06:17.775Z,51.83
2023-04-15T22:08:55.199Z,52.80
2023-04-15T22:11:26.876Z,49.67
2023-04-15T22:13:54.589Z,48.90
2023-04-15T22:16:21.255Z,49.97
2023-04-15T22:18:47.814Z,51.27
2023-04-15T22:21:14.539Z,48.90
2023-04-15T22:23:41.182Z,48.97
2023-04-15T22:26:07.856Z,50.10
2023-04-15T22:28:34.462Z,51.30
2023-04-15T22:31:00.973Z,48.73
2023-04-15T22:33:27.667Z,51.63
2023-04-15T22:35:54.470Z,49.00
2023-04-15T22:38:21.246Z,49.07
2023-04-15T22:40:47.785Z,48.33
2023-04-15T22:43:14.339Z,48.67
2023-04-15T22:45:40.870Z,47.43
2023-04-15T22:48:07.417Z,49.47
2023-04-15T22:50:36.748Z,48.97
2023-04-15T22:53:03.225Z,48.53
2023-04-15T22:55:29.785Z,45.73
2023-04-15T22:57:56.474Z,45.77
2023-04-15T23:00:23.049Z,45.63
2023-04-15T23:02:49.854Z,47.57
2023-04-15T23:05:16.612Z,47.17
2023-04-15T23:07:43.176Z,45.90
2023-04-15T23:10:09.863Z,44.47
2023-04-15T23:12:36.472Z,44.73
2023-04-15T23:15:03.317Z,41.30
2023-04-15T23:17:30.023Z,43.13
2023-04-15T23:19:56.854Z,42.67
2023-04-15T23:22:23.515Z,43.57
2023-04-15T23:24:50.045Z,40.53
2023-04-15T23:27:19.065Z,39.70
2023-04-15T23:29:46.108Z,41.10
2023-04-15T23:32:12.676Z,43.17
2023-04-15T23:34:39.260Z,39.80
2023-04-15T23:37:05.914Z,40.43
2023-04-15T23:39:32.450Z,41.57
2023-04-15T23:41:59.051Z,38.20
2023-04-15T23:44:25.601Z,40.13
2023-04-15T23:46:52.246Z,39.37
2023-04-15T23:49:20.334Z,39.53
2023-04-15T23:51:47.293Z,39.17
2023-04-15T23:54:13.880Z,40.33
2023-04-15T23:56:40.460Z,37.83
2023-04-15T23:59:07.116Z,39.93
